Faust — SLKQ — position and weather

sailwx.info

Track history (hours):
 
Tides and Currents Weather Stations Pressure Air Temp Water Temp Dewpoint Dewpoint Depression Visibility Wind Speed Wind Dir Waves Ship Positions

Faust

Last reported at 2016-Feb-14 05:33 UTC. Time now 2016-Feb-14 19:03 UTC.
Position N 31°51' W 080°37'.

Length 227.8 m; beam 32.3 m; draft 9.5 m.

Type: Cargo ship. MMSI: 266260000.

Date/timePositionNaut miles runAvg speedWind from/ knotsBaromVisibWave heightAir tempDewpointWater temp
2016-Feb-14 05:33N 31°51' W 080°37'1010.0
2016-Feb-14 04:33N 31°59' W 080°45'1111.4
2016-Feb-14 03:33N 32°04' W 080°57'8 7.8
2016-Feb-14 02:33N 32°05' W 081°06'0 0.3
2016-Feb-14 01:32N 32°05' W 081°06'0 0.0
2016-Feb-14 00:32N 32°05' W 081°06'0 0.0
2016-Feb-13 23:32N 32°05' W 081°06'0 0.0
2016-Feb-13 22:32N 32°05' W 081°06'0 0.0
2016-Feb-13 21:32N 32°05' W 081°06'0 0.0
2016-Feb-13 20:32N 32°05' W 081°06'0 0.0
2016-Feb-13 19:32N 32°05' W 081°06'0 0.0
2016-Feb-13 18:29N 32°05' W 081°06'0 0.0
2016-Feb-13 17:32N 32°05' W 081°06'0 0.0
2016-Feb-13 16:32N 32°05' W 081°06'0 0.0
2016-Feb-13 15:32N 32°05' W 081°06'0 0.0
2016-Feb-13 14:32N 32°05' W 081°06'0 0.0
2016-Feb-13 13:32N 32°05' W 081°06'0 0.0
2016-Feb-13 12:33N 32°05' W 081°06'0 0.0
2016-Feb-13 11:34N 32°05' W 081°06'1 1.4
2016-Feb-13 10:33N 32°06' W 081°07'3 3.0
2016-Feb-13 09:33N 32°05' W 081°04'8 7.7
2016-Feb-13 08:34N 32°02' W 080°55'1111.0
2016-Feb-13 07:33N 31°58' W 080°43'7 7.1
2016-Feb-13 06:33N 31°57' W 080°35'7 7.3
2016-Feb-13 05:33N 31°59' W 080°26'37114.2
2016-Feb-12 03:25N 36°47' W 075°43'8 9.8
2016-Feb-12 02:33N 36°51' W 075°51'9 9.0
2016-Feb-12 01:33N 36°57' W 075°60'5516.2
2016-Feb-11 22:10N 37°52' W 076°10'1117.7
2016-Feb-11 21:34N 38°02' W 076°13'4317.8
2016-Feb-11 19:09N 38°44' W 076°26'1118.4
2016-Feb-11 18:34N 38°55' W 076°23'1514.9
2016-Feb-11 17:33N 39°09' W 076°25'9 9.3
2016-Feb-11 16:33N 39°15' W 076°35'0 0.0
2016-Feb-11 15:33N 39°15' W 076°35'0 0.0
2016-Feb-11 14:33N 39°15' W 076°35'0 0.0
2016-Feb-11 13:33N 39°15' W 076°35'0 0.0
2016-Feb-11 12:33N 39°15' W 076°35'0 0.0
2016-Feb-11 11:33N 39°15' W 076°35'0 0.0
2016-Feb-11 10:33N 39°15' W 076°35'0 0.0
2016-Feb-11 09:33N 39°15' W 076°35'0 0.0
2016-Feb-11 08:33N 39°15' W 076°35'0 0.0
2016-Feb-11 07:33N 39°15' W 076°35'0 0.0
2016-Feb-11 06:33N 39°15' W 076°35'0 0.0
2016-Feb-11 05:33N 39°15' W 076°35'0 0.0
2016-Feb-11 04:33N 39°15' W 076°35'2 1.8
2016-Feb-11 03:33N 39°14' W 076°33'0 0.3
2016-Feb-11 02:33N 39°15' W 076°32'0 0.0
2016-Feb-11 01:33N 39°15' W 076°32'0 0.0
2016-Feb-11 00:33N 39°15' W 076°32'0 0.0
2016-Feb-10 23:33N 39°15' W 076°32'0 0.0
2016-Feb-10 22:33N 39°15' W 076°32'0 0.0
2016-Feb-10 21:33N 39°15' W 076°32'0 0.0
2016-Feb-10 20:33N 39°15' W 076°32'0 0.0
2016-Feb-10 19:33N 39°15' W 076°32'0 0.0
2016-Feb-10 18:33N 39°15' W 076°32'0 0.0
2016-Feb-10 17:33N 39°15' W 076°32'0 0.0
2016-Feb-10 16:33N 39°15' W 076°32'0 0.0
2016-Feb-10 15:33N 39°15' W 076°32'0 0.0
2016-Feb-10 14:33N 39°15' W 076°32'0 0.0
2016-Feb-10 13:33N 39°15' W 076°32'0 0.0
2016-Feb-10 12:33N 39°15' W 076°32'0 0.0
2016-Feb-10 11:33N 39°15' W 076°32'0 0.0
2016-Feb-10 10:33N 39°15' W 076°32'0 0.0
2016-Feb-10 09:33N 39°15' W 076°32'0 0.0
2016-Feb-10 08:33N 39°15' W 076°32'0 0.0
2016-Feb-10 07:33N 39°15' W 076°32'0 0.0
2016-Feb-10 06:33N 39°15' W 076°32'0 0.0
2016-Feb-10 05:33N 39°15' W 076°32'0 0.0
2016-Feb-10 04:33N 39°15' W 076°32'0 0.0
2016-Feb-10 03:33N 39°15' W 076°32'0 0.0
2016-Feb-10 02:33N 39°15' W 076°32'0 0.0
2016-Feb-10 01:33N 39°15' W 076°32'0 0.0
2016-Feb-10 00:33N 39°15' W 076°32'0 0.0
2016-Feb-09 23:34N 39°15' W 076°32'0 0.3
2016-Feb-09 22:33N 39°14' W 076°32'4 3.8
2016-Feb-09 21:33N 39°12' W 076°29'1111.3
2016-Feb-09 20:33N 39°01' W 076°23'1716.0
2016-Feb-09 19:31N 38°45' W 076°26'10116.8
2016-Feb-09 13:30N 37°05' W 076°06'1313.7
2016-Feb-09 12:33N 36°55' W 075°55'9 8.1
2016-Feb-09 11:30N 36°50' W 075°47'  
Track history (hours):
 
Tides and Currents Weather Stations Pressure Air Temp Water Temp Dewpoint Dewpoint Depression Visibility Wind Speed Wind Dir Waves Ship Positions

Faust

Last reported at 2016-Feb-14 05:33 UTC. Time now 2016-Feb-14 19:03 UTC.
Position N 31°51' W 080°37'.

Length 227.8 m; beam 32.3 m; draft 9.5 m.

Type: Cargo ship. MMSI: 266260000.

Date/timePositionNaut miles runAvg speedWind from/ knotsBaromVisibWave heightAir tempDewpointWater temp
2016-Feb-14 05:33N 31°51' W 080°37'1010.0
2016-Feb-14 04:33N 31°59' W 080°45'1111.4
2016-Feb-14 03:33N 32°04' W 080°57'8 7.8
2016-Feb-14 02:33N 32°05' W 081°06'0 0.3
2016-Feb-14 01:32N 32°05' W 081°06'0 0.0
2016-Feb-14 00:32N 32°05' W 081°06'0 0.0
2016-Feb-13 23:32N 32°05' W 081°06'0 0.0
2016-Feb-13 22:32N 32°05' W 081°06'0 0.0
2016-Feb-13 21:32N 32°05' W 081°06'0 0.0
2016-Feb-13 20:32N 32°05' W 081°06'0 0.0
2016-Feb-13 19:32N 32°05' W 081°06'0 0.0
2016-Feb-13 18:29N 32°05' W 081°06'0 0.0
2016-Feb-13 17:32N 32°05' W 081°06'0 0.0
2016-Feb-13 16:32N 32°05' W 081°06'0 0.0
2016-Feb-13 15:32N 32°05' W 081°06'0 0.0
2016-Feb-13 14:32N 32°05' W 081°06'0 0.0
2016-Feb-13 13:32N 32°05' W 081°06'0 0.0
2016-Feb-13 12:33N 32°05' W 081°06'0 0.0
2016-Feb-13 11:34N 32°05' W 081°06'1 1.4
2016-Feb-13 10:33N 32°06' W 081°07'3 3.0
2016-Feb-13 09:33N 32°05' W 081°04'8 7.7
2016-Feb-13 08:34N 32°02' W 080°55'1111.0
2016-Feb-13 07:33N 31°58' W 080°43'7 7.1
2016-Feb-13 06:33N 31°57' W 080°35'7 7.3
2016-Feb-13 05:33N 31°59' W 080°26'37114.2
2016-Feb-12 03:25N 36°47' W 075°43'8 9.8
2016-Feb-12 02:33N 36°51' W 075°51'9 9.0
2016-Feb-12 01:33N 36°57' W 075°60'5516.2
2016-Feb-11 22:10N 37°52' W 076°10'1117.7
2016-Feb-11 21:34N 38°02' W 076°13'4317.8
2016-Feb-11 19:09N 38°44' W 076°26'1118.4
2016-Feb-11 18:34N 38°55' W 076°23'1514.9
2016-Feb-11 17:33N 39°09' W 076°25'9 9.3
2016-Feb-11 16:33N 39°15' W 076°35'0 0.0
2016-Feb-11 15:33N 39°15' W 076°35'0 0.0
2016-Feb-11 14:33N 39°15' W 076°35'0 0.0
2016-Feb-11 13:33N 39°15' W 076°35'0 0.0
2016-Feb-11 12:33N 39°15' W 076°35'0 0.0
2016-Feb-11 11:33N 39°15' W 076°35'0 0.0
2016-Feb-11 10:33N 39°15' W 076°35'0 0.0
2016-Feb-11 09:33N 39°15' W 076°35'0 0.0
2016-Feb-11 08:33N 39°15' W 076°35'0 0.0
2016-Feb-11 07:33N 39°15' W 076°35'0 0.0
2016-Feb-11 06:33N 39°15' W 076°35'0 0.0
2016-Feb-11 05:33N 39°15' W 076°35'0 0.0
2016-Feb-11 04:33N 39°15' W 076°35'2 1.8
2016-Feb-11 03:33N 39°14' W 076°33'0 0.3
2016-Feb-11 02:33N 39°15' W 076°32'0 0.0
2016-Feb-11 01:33N 39°15' W 076°32'0 0.0
2016-Feb-11 00:33N 39°15' W 076°32'0 0.0
2016-Feb-10 23:33N 39°15' W 076°32'0 0.0
2016-Feb-10 22:33N 39°15' W 076°32'0 0.0
2016-Feb-10 21:33N 39°15' W 076°32'0 0.0
2016-Feb-10 20:33N 39°15' W 076°32'0 0.0
2016-Feb-10 19:33N 39°15' W 076°32'0 0.0
2016-Feb-10 18:33N 39°15' W 076°32'0 0.0
2016-Feb-10 17:33N 39°15' W 076°32'0 0.0
2016-Feb-10 16:33N 39°15' W 076°32'0 0.0
2016-Feb-10 15:33N 39°15' W 076°32'0 0.0
2016-Feb-10 14:33N 39°15' W 076°32'0 0.0
2016-Feb-10 13:33N 39°15' W 076°32'0 0.0
2016-Feb-10 12:33N 39°15' W 076°32'0 0.0
2016-Feb-10 11:33N 39°15' W 076°32'0 0.0
2016-Feb-10 10:33N 39°15' W 076°32'0 0.0
2016-Feb-10 09:33N 39°15' W 076°32'0 0.0
2016-Feb-10 08:33N 39°15' W 076°32'0 0.0
2016-Feb-10 07:33N 39°15' W 076°32'0 0.0
2016-Feb-10 06:33N 39°15' W 076°32'0 0.0
2016-Feb-10 05:33N 39°15' W 076°32'0 0.0
2016-Feb-10 04:33N 39°15' W 076°32'0 0.0
2016-Feb-10 03:33N 39°15' W 076°32'0 0.0
2016-Feb-10 02:33N 39°15' W 076°32'0 0.0
2016-Feb-10 01:33N 39°15' W 076°32'0 0.0
2016-Feb-10 00:33N 39°15' W 076°32'0 0.0
2016-Feb-09 23:34N 39°15' W 076°32'0 0.3
2016-Feb-09 22:33N 39°14' W 076°32'4 3.8
2016-Feb-09 21:33N 39°12' W 076°29'1111.3
2016-Feb-09 20:33N 39°01' W 076°23'1716.0
2016-Feb-09 19:31N 38°45' W 076°26'10116.8
2016-Feb-09 13:30N 37°05' W 076°06'1313.7
2016-Feb-09 12:33N 36°55' W 075°55'9 8.1
2016-Feb-09 11:30N 36°50' W 075°47'  

Dump ship's entire track history